Time;durP1;ratioP1;P1;durP2;ratioP2;P2;SDS_P1;SDS_P2;PMS_P1;PMS_P2;Temp;Humidity;BMP_temperature;BMP_pressure;BME280_temperature;BME280_humidity;BME280_pressure;Samples;Min_cycle;Max_cycle;Signal;HPM_P1;HPM_P2
2023/12/20 00:01:23;;;;;;;0.10;0.10;;;;;;;;;;6243393;28;20353;-90
2023/12/20 00:04:23;;;;;;;0.10;0.10;;;;;;;;;;6243815;28;20029;-90
2023/12/20 00:07:25;;;;;;;0.20;0.20;;;;;;;;;;6257695;28;20020;-90
2023/12/20 00:10:25;;;;;;;0.20;0.20;;;;;;;;;;6250538;28;20084;-90
2023/12/20 00:13:25;;;;;;;0.10;0.10;;;;;;;;;;6243007;28;20010;-91
2023/12/20 00:16:26;;;;;;;0.10;0.10;;;;;;;;;;6240089;28;20021;-91
2023/12/20 00:19:26;;;;;;;0.20;0.20;;;;;;;;;;6242809;28;20556;-92
2023/12/20 00:22:26;;;;;;;0.13;0.13;;;;;;;;;;6244119;28;20485;-92
2023/12/20 00:25:26;;;;;;;0.15;0.15;;;;;;;;;;6243413;28;20023;-92
2023/12/20 00:28:27;;;;;;;0.20;0.20;;;;;;;;;;6249708;28;20566;-91
2023/12/20 00:31:27;;;;;;;0.20;0.20;;;;;;;;;;6252039;28;20029;-91
2023/12/20 00:34:27;;;;;;;0.20;0.20;;;;;;;;;;6252912;28;20499;-87
2023/12/20 00:37:27;;;;;;;0.20;0.20;;;;;;;;;;6254371;28;20459;-87
2023/12/20 00:40:28;;;;;;;0.20;0.20;;;;;;;;;;6262422;28;20033;-87
2023/12/20 00:43:28;;;;;;;0.20;0.20;;;;;;;;;;6243927;28;20099;-87
2023/12/20 00:46:28;;;;;;;0.10;0.10;;;;;;;;;;6242461;28;20049;-87
2023/12/20 00:49:28;;;;;;;0.20;0.20;;;;;;;;;;6256501;28;20024;-87
2023/12/20 00:52:29;;;;;;;0.20;0.20;;;;;;;;;;6243499;28;20535;-88
2023/12/20 00:55:29;;;;;;;0.10;0.10;;;;;;;;;;6256261;28;20017;-87
2023/12/20 00:58:29;;;;;;;0.20;0.20;;;;;;;;;;6241778;28;20060;-87
2023/12/20 01:01:29;;;;;;;0.20;0.20;;;;;;;;;;6242380;28;20010;-87
2023/12/20 01:04:29;;;;;;;0.10;0.10;;;;;;;;;;6257897;28;20068;-87
2023/12/20 01:07:30;;;;;;;0.20;0.20;;;;;;;;;;6216825;28;20520;-87
2023/12/20 01:10:30;;;;;;;0.20;0.20;;;;;;;;;;6246481;28;20440;-87
2023/12/20 01:13:30;;;;;;;0.13;0.13;;;;;;;;;;6255986;28;20026;-87
2023/12/20 01:16:30;;;;;;;0.20;0.20;;;;;;;;;;6249151;28;20013;-87
2023/12/20 01:19:30;;;;;;;0.13;0.13;;;;;;;;;;6249391;28;20025;-87
2023/12/20 01:22:31;;;;;;;0.20;0.20;;;;;;;;;;6246351;28;20022;-87
2023/12/20 01:25:31;;;;;;;0.20;0.20;;;;;;;;;;6248885;28;20457;-87
2023/12/20 01:28:31;;;;;;;0.10;0.10;;;;;;;;;;6258401;28;20167;-87
2023/12/20 01:31:32;;;;;;;0.10;0.10;;;;;;;;;;6247159;28;20064;-87
2023/12/20 01:34:33;;;;;;;0.10;0.10;;;;;;;;;;6246217;28;20013;-87
2023/12/20 01:37:33;;;;;;;0.13;0.13;;;;;;;;;;6240097;28;20033;-87
2023/12/20 01:40:33;;;;;;;0.10;0.10;;;;;;;;;;6244724;28;20056;-87
2023/12/20 01:43:34;;;;;;;0.10;0.10;;;;;;;;;;6247379;28;20028;-89
2023/12/20 01:46:34;;;;;;;0.10;0.10;;;;;;;;;;6246141;28;20388;-89
2023/12/20 01:49:35;;;;;;;0.20;0.20;;;;;;;;;;6246228;28;20152;-89
2023/12/20 01:52:35;;;;;;;0.10;0.10;;;;;;;;;;6246294;28;20028;-87
2023/12/20 01:55:38;;;;;;;0.10;0.10;;;;;;;;;;6244702;28;20907;-87
2023/12/20 01:58:41;;;;;;;0.10;0.10;;;;;;;;;;6246136;28;20559;-87
2023/12/20 02:01:41;;;;;;;0.13;0.13;;;;;;;;;;6244996;28;20017;-87
2023/12/20 02:04:41;;;;;;;0.10;0.10;;;;;;;;;;6245828;28;20052;-87
2023/12/20 02:07:42;;;;;;;0.10;0.10;;;;;;;;;;6245730;28;20080;-87
2023/12/20 02:10:42;;;;;;;0.10;0.10;;;;;;;;;;6220635;28;20054;-87
2023/12/20 02:13:43;;;;;;;0.10;0.10;;;;;;;;;;6246438;28;20080;-87
2023/12/20 02:16:43;;;;;;;0.10;0.10;;;;;;;;;;6245112;28;20032;-87
2023/12/20 02:19:43;;;;;;;0.20;0.20;;;;;;;;;;6250427;28;20036;-87
2023/12/20 02:22:43;;;;;;;0.10;0.10;;;;;;;;;;6270986;28;20111;-87
2023/12/20 02:25:44;;;;;;;0.10;0.10;;;;;;;;;;6246065;28;20116;-87
2023/12/20 02:28:44;;;;;;;0.10;0.10;;;;;;;;;;6244086;28;20833;-87
2023/12/20 02:31:44;;;;;;;0.10;0.10;;;;;;;;;;6247794;28;20105;-87
2023/12/20 02:34:45;;;;;;;0.10;0.10;;;;;;;;;;6248345;28;20124;-87
2023/12/20 02:37:46;;;;;;;0.10;0.10;;;;;;;;;;6244545;28;20028;-87
2023/12/20 02:40:46;;;;;;;0.10;0.10;;;;;;;;;;6245470;28;20472;-87
2023/12/20 02:43:46;;;;;;;0.10;0.10;;;;;;;;;;6244825;28;20112;-88
2023/12/20 02:46:46;;;;;;;0.10;0.10;;;;;;;;;;6243871;28;20025;-88
2023/12/20 02:49:47;;;;;;;0.10;0.10;;;;;;;;;;6245340;28;20025;-87
2023/12/20 02:52:47;;;;;;;0.20;0.20;;;;;;;;;;6245949;28;20025;-91
2023/12/20 02:55:47;;;;;;;0.20;0.20;;;;;;;;;;6243164;28;20136;-89
2023/12/20 02:58:47;;;;;;;0.17;0.17;;;;;;;;;;6244156;28;20033;-90
2023/12/20 03:01:47;;;;;;;0.20;0.20;;;;;;;;;;6245145;28;20017;-89
2023/12/20 03:04:48;;;;;;;0.17;0.17;;;;;;;;;;6250668;28;20020;-90
2023/12/20 03:07:48;;;;;;;0.10;0.10;;;;;;;;;;6244976;28;20021;-90
2023/12/20 03:10:48;;;;;;;0.10;0.10;;;;;;;;;;6251486;28;20508;-90
2023/12/20 03:13:49;;;;;;;0.20;0.20;;;;;;;;;;6245112;28;20032;-90
2023/12/20 03:16:49;;;;;;;0.20;0.20;;;;;;;;;;6243410;28;20018;-92
2023/12/20 03:19:50;;;;;;;0.10;0.10;;;;;;;;;;6258319;28;20327;-91
2023/12/20 03:22:50;;;;;;;0.10;0.10;;;;;;;;;;6245407;28;20031;-91
2023/12/20 03:25:50;;;;;;;0.10;0.10;;;;;;;;;;6244312;28;20037;-91
2023/12/20 03:28:50;;;;;;;0.10;0.10;;;;;;;;;;6256623;28;20488;-91
2023/12/20 03:31:51;;;;;;;0.17;0.17;;;;;;;;;;6244103;28;20400;-91
2023/12/20 03:34:51;;;;;;;0.10;0.10;;;;;;;;;;6244091;28;20045;-92
2023/12/20 03:37:51;;;;;;;0.20;0.20;;;;;;;;;;6259920;28;20022;-91
2023/12/20 03:40:51;;;;;;;0.20;0.20;;;;;;;;;;6254358;28;20637;-92
2023/12/20 03:43:52;;;;;;;0.10;0.10;;;;;;;;;;6255006;28;20080;-91
2023/12/20 03:46:52;;;;;;;0.17;0.17;;;;;;;;;;6256706;28;20078;-91
2023/12/20 03:49:53;;;;;;;0.20;0.20;;;;;;;;;;6244104;28;20033;-91
2023/12/20 03:52:53;;;;;;;0.20;0.20;;;;;;;;;;6252381;28;20391;-92
2023/12/20 03:55:53;;;;;;;0.20;0.20;;;;;;;;;;6243493;28;20108;-91
2023/12/20 03:58:53;;;;;;;0.20;0.20;;;;;;;;;;6243420;28;20015;-92
2023/12/20 04:01:54;;;;;;;0.20;0.20;;;;;;;;;;6256971;28;20490;-91
2023/12/20 04:04:54;;;;;;;0.20;0.20;;;;;;;;;;6252120;28;20021;-92
2023/12/20 04:07:54;;;;;;;0.20;0.20;;;;;;;;;;6243523;28;20112;-92
2023/12/20 04:10:54;;;;;;;0.20;0.20;;;;;;;;;;6256781;28;20045;-92
2023/12/20 04:13:55;;;;;;;0.20;0.20;;;;;;;;;;6258548;28;20025;-92
2023/12/20 04:16:55;;;;;;;0.10;0.10;;;;;;;;;;6243764;28;20021;-91
2023/12/20 04:19:55;;;;;;;0.20;0.20;;;;;;;;;;6257909;28;20025;-91
2023/12/20 04:22:55;;;;;;;0.20;0.20;;;;;;;;;;6242873;28;20063;-90
2023/12/20 04:25:56;;;;;;;0.20;0.20;;;;;;;;;;6243313;28;20108;-91
2023/12/20 04:28:56;;;;;;;0.20;0.20;;;;;;;;;;6242966;28;20029;-91
2023/12/20 04:31:56;;;;;;;0.20;0.20;;;;;;;;;;6241644;28;20123;-91
2023/12/20 04:34:57;;;;;;;0.10;0.10;;;;;;;;;;6240976;28;20115;-91
2023/12/20 04:37:57;;;;;;;0.20;0.20;;;;;;;;;;6241938;28;20013;-91
2023/12/20 04:40:57;;;;;;;0.20;0.20;;;;;;;;;;6242462;28;20087;-91
2023/12/20 04:43:57;;;;;;;0.20;0.20;;;;;;;;;;6242068;28;20052;-91
2023/12/20 04:46:58;;;;;;;0.20;0.20;;;;;;;;;;6242954;28;20091;-90
2023/12/20 04:49:58;;;;;;;0.20;0.20;;;;;;;;;;6242854;28;20026;-91
2023/12/20 04:52:58;;;;;;;0.20;0.20;;;;;;;;;;6258288;28;20025;-91
2023/12/20 04:55:59;;;;;;;0.20;0.20;;;;;;;;;;6242735;28;20017;-90
2023/12/20 04:58:59;;;;;;;0.20;0.20;;;;;;;;;;6242924;28;20021;-91
2023/12/20 05:01:59;;;;;;;0.20;0.20;;;;;;;;;;6242819;28;20034;-90
2023/12/20 05:04:59;;;;;;;0.20;0.20;;;;;;;;;;6242511;28;20124;-91
2023/12/20 05:08:00;;;;;;;0.20;0.20;;;;;;;;;;6241905;28;20030;-91
2023/12/20 05:11:00;;;;;;;0.20;0.20;;;;;;;;;;6241800;28;20025;-91
2023/12/20 05:14:00;;;;;;;0.20;0.20;;;;;;;;;;6235614;28;20026;-91
2023/12/20 05:17:00;;;;;;;0.20;0.20;;;;;;;;;;6240815;28;20075;-91
2023/12/20 05:20:00;;;;;;;0.20;0.20;;;;;;;;;;6242411;28;20057;-91
2023/12/20 05:23:01;;;;;;;0.20;0.20;;;;;;;;;;6242723;28;20072;-88
2023/12/20 05:26:01;;;;;;;0.20;0.20;;;;;;;;;;6242011;28;20068;-87
2023/12/20 05:29:01;;;;;;;0.20;0.20;;;;;;;;;;6241989;28;20021;-87
2023/12/20 05:32:04;;;;;;;0.20;0.20;;;;;;;;;;6240682;28;20017;-87
2023/12/20 05:35:04;;;;;;;0.20;0.20;;;;;;;;;;6241216;28;20049;-87
2023/12/20 05:38:04;;;;;;;0.20;0.20;;;;;;;;;;6241754;28;20014;-86
2023/12/20 05:41:08;;;;;;;0.20;0.20;;;;;;;;;;6240353;28;20033;-87
2023/12/20 05:44:08;;;;;;;0.20;0.20;;;;;;;;;;6246951;28;20030;-86
2023/12/20 05:47:08;;;;;;;0.20;0.20;;;;;;;;;;6240381;28;20021;-86
2023/12/20 05:50:09;;;;;;;0.20;0.20;;;;;;;;;;6262467;28;20025;-88
2023/12/20 05:53:09;;;;;;;0.10;0.10;;;;;;;;;;6235060;28;20484;-87
2023/12/20 05:56:10;;;;;;;0.20;0.20;;;;;;;;;;6235624;28;20123;-87
2023/12/20 05:59:10;;;;;;;0.20;0.20;;;;;;;;;;6241080;28;20036;-87
2023/12/20 06:02:10;;;;;;;0.20;0.20;;;;;;;;;;6255814;28;20628;-87
2023/12/20 06:05:10;;;;;;;0.20;0.20;;;;;;;;;;6232501;28;20488;-86
2023/12/20 06:08:10;;;;;;;0.20;0.20;;;;;;;;;;6242378;28;20091;-87
2023/12/20 06:11:11;;;;;;;0.20;0.20;;;;;;;;;;6245674;28;20037;-87
2023/12/20 06:14:11;;;;;;;0.20;0.20;;;;;;;;;;6243868;28;20120;-87
2023/12/20 06:17:11;;;;;;;0.20;0.20;;;;;;;;;;6259949;28;20590;-87
2023/12/20 06:20:11;;;;;;;0.20;0.20;;;;;;;;;;6246411;28;20036;-86
2023/12/20 06:23:12;;;;;;;0.20;0.20;;;;;;;;;;6261035;28;20025;-87
2023/12/20 06:26:12;;;;;;;0.20;0.20;;;;;;;;;;6245330;28;20091;-88
2023/12/20 06:29:12;;;;;;;0.20;0.20;;;;;;;;;;6243633;28;20037;-87
2023/12/20 06:32:12;;;;;;;0.20;0.20;;;;;;;;;;6240895;28;20029;-88
2023/12/20 06:35:13;;;;;;;0.20;0.20;;;;;;;;;;6241198;28;20056;-92
2023/12/20 06:38:13;;;;;;;0.20;0.20;;;;;;;;;;6229265;28;20056;-93
2023/12/20 06:41:14;;;;;;;0.20;0.20;;;;;;;;;;6243706;28;20021;-91
2023/12/20 06:44:14;;;;;;;0.20;0.20;;;;;;;;;;6244952;28;20074;-90
2023/12/20 06:47:14;;;;;;;0.20;0.20;;;;;;;;;;6246594;28;20518;-91
2023/12/20 06:50:14;;;;;;;0.20;0.20;;;;;;;;;;6244295;28;20030;-91
2023/12/20 06:53:15;;;;;;;0.20;0.20;;;;;;;;;;6244986;28;20044;-91
2023/12/20 06:56:16;;;;;;;0.20;0.20;;;;;;;;;;6244382;28;20021;-91
2023/12/20 06:59:16;;;;;;;0.20;0.20;;;;;;;;;;6254866;28;20556;-91
2023/12/20 07:02:17;;;;;;;0.20;0.20;;;;;;;;;;6243668;28;20091;-90
2023/12/20 07:05:19;;;;;;;0.20;0.20;;;;;;;;;;6243827;28;20542;-91
2023/12/20 07:08:19;;;;;;;0.20;0.20;;;;;;;;;;6241656;28;20537;-91
2023/12/20 07:11:20;;;;;;;0.20;0.20;;;;;;;;;;6243212;28;20037;-91
2023/12/20 07:14:20;;;;;;;0.20;0.20;;;;;;;;;;6241294;28;20033;-91
2023/12/20 07:17:21;;;;;;;0.20;0.20;;;;;;;;;;6244103;28;20432;-91
2023/12/20 07:20:21;;;;;;;0.20;0.20;;;;;;;;;;6226027;28;20572;-91
2023/12/20 07:23:21;;;;;;;0.20;0.20;;;;;;;;;;6225780;28;20120;-91
2023/12/20 07:26:23;;;;;;;0.20;0.20;;;;;;;;;;6244060;28;20074;-90
2023/12/20 07:29:23;;;;;;;0.20;0.20;;;;;;;;;;6244307;28;20102;-91
2023/12/20 07:32:23;;;;;;;0.20;0.20;;;;;;;;;;6244716;28;20490;-89
2023/12/20 07:35:25;;;;;;;0.20;0.20;;;;;;;;;;6241787;28;20480;-88
2023/12/20 07:38:25;;;;;;;0.20;0.20;;;;;;;;;;6243707;28;20013;-88
2023/12/20 07:41:25;;;;;;;0.20;0.20;;;;;;;;;;6243200;28;20149;-87
2023/12/20 07:44:25;;;;;;;0.20;0.20;;;;;;;;;;6233548;28;20018;-91
2023/12/20 07:47:26;;;;;;;0.23;0.23;;;;;;;;;;6240156;28;21255;-92
2023/12/20 07:50:27;;;;;;;0.20;0.20;;;;;;;;;;6257728;28;20021;-92
2023/12/20 07:53:27;;;;;;;0.20;0.20;;;;;;;;;;6243010;28;20373;-90
2023/12/20 07:56:27;;;;;;;0.20;0.20;;;;;;;;;;6224909;28;20124;-89
2023/12/20 07:59:28;;;;;;;0.17;0.17;;;;;;;;;;6237682;28;20029;-90
2023/12/20 08:02:28;;;;;;;0.20;0.20;;;;;;;;;;6238882;28;20036;-92
2023/12/20 08:05:28;;;;;;;0.20;0.20;;;;;;;;;;6242886;28;20053;-94
2023/12/20 08:08:28;;;;;;;0.20;0.20;;;;;;;;;;6242568;28;20136;-92
2023/12/20 08:11:29;;;;;;;0.20;0.20;;;;;;;;;;6243942;28;20029;-92
2023/12/20 08:14:29;;;;;;;0.20;0.20;;;;;;;;;;6242712;28;20091;-92
2023/12/20 08:17:30;;;;;;;0.20;0.20;;;;;;;;;;6242986;28;20049;-93
2023/12/20 08:20:30;;;;;;;0.20;0.20;;;;;;;;;;6239863;28;20021;-92
2023/12/20 08:23:30;;;;;;;0.20;0.20;;;;;;;;;;6241518;28;20114;-91
2023/12/20 08:26:30;;;;;;;0.20;0.20;;;;;;;;;;6243456;28;20086;-92
2023/12/20 08:29:31;;;;;;;0.20;0.20;;;;;;;;;;6227744;28;20030;-93
2023/12/20 08:32:32;;;;;;;0.20;0.20;;;;;;;;;;6258545;28;20021;-92
2023/12/20 08:35:32;;;;;;;0.20;0.20;;;;;;;;;;6240112;28;20017;-92
2023/12/20 08:38:32;;;;;;;0.20;0.20;;;;;;;;;;6243466;28;20013;-93
2023/12/20 08:41:32;;;;;;;0.20;0.20;;;;;;;;;;6242233;28;20063;-93
2023/12/20 08:44:33;;;;;;;0.20;0.20;;;;;;;;;;6242087;28;20029;-91
2023/12/20 08:47:33;;;;;;;0.20;0.20;;;;;;;;;;6234639;28;20065;-92
2023/12/20 08:50:36;;;;;;;0.20;0.20;;;;;;;;;;6237257;28;20021;-94
2023/12/20 08:53:36;;;;;;;0.20;0.20;;;;;;;;;;6240052;28;20388;-89
2023/12/20 08:56:37;;;;;;;0.20;0.20;;;;;;;;;;6242372;28;20017;-89
2023/12/20 08:59:37;;;;;;;0.20;0.20;;;;;;;;;;6240658;28;20027;-89
2023/12/20 09:02:38;;;;;;;0.20;0.20;;;;;;;;;;6251217;28;20026;-88
2023/12/20 09:05:38;;;;;;;0.20;0.20;;;;;;;;;;6234590;28;20017;-89
2023/12/20 09:08:38;;;;;;;0.20;0.20;;;;;;;;;;6239603;28;20091;-89
2023/12/20 09:11:38;;;;;;;0.20;0.20;;;;;;;;;;6234150;28;20030;-87
2023/12/20 09:14:38;;;;;;;0.20;0.20;;;;;;;;;;6242083;28;20495;-88
2023/12/20 09:17:39;;;;;;;0.20;0.20;;;;;;;;;;6242304;28;20469;-87
2023/12/20 09:20:40;;;;;;;0.20;0.20;;;;;;;;;;6242503;28;20021;-88
2023/12/20 09:23:40;;;;;;;0.20;0.20;;;;;;;;;;6242396;28;20021;-88
2023/12/20 09:26:41;;;;;;;0.20;0.20;;;;;;;;;;6239858;28;20049;-88
2023/12/20 09:29:41;;;;;;;0.20;0.20;;;;;;;;;;6242852;28;20108;-88
2023/12/20 09:32:42;;;;;;;0.20;0.20;;;;;;;;;;6242635;28;20026;-88
2023/12/20 09:35:42;;;;;;;0.20;0.20;;;;;;;;;;6242551;28;20029;-88
2023/12/20 09:38:42;;;;;;;0.20;0.20;;;;;;;;;;6240425;28;20025;-86
2023/12/20 09:41:44;;;;;;;0.20;0.20;;;;;;;;;;6243805;28;20794;-87
2023/12/20 09:44:44;;;;;;;0.20;0.20;;;;;;;;;;6245914;28;20067;-87
2023/12/20 09:47:45;;;;;;;0.20;0.20;;;;;;;;;;6245470;28;20021;-87
2023/12/20 09:50:45;;;;;;;0.20;0.20;;;;;;;;;;6241781;28;20045;-87
2023/12/20 09:53:46;;;;;;;0.20;0.20;;;;;;;;;;6244369;28;20053;-87
2023/12/20 09:56:47;;;;;;;0.20;0.20;;;;;;;;;;6246455;28;20109;-87
2023/12/20 09:59:47;;;;;;;0.20;0.20;;;;;;;;;;6243673;28;20396;-87
2023/12/20 10:02:47;;;;;;;0.20;0.20;;;;;;;;;;6246170;28;20116;-87
2023/12/20 10:05:49;;;;;;;0.20;0.20;;;;;;;;;;6239713;28;20061;-87
2023/12/20 10:08:52;;;;;;;0.20;0.20;;;;;;;;;;6243825;28;20046;-86
2023/12/20 10:11:54;;;;;;;0.20;0.20;;;;;;;;;;6243951;28;20427;-87
2023/12/20 10:14:54;;;;;;;0.20;0.20;;;;;;;;;;6258579;28;20029;-87
2023/12/20 10:17:54;;;;;;;0.20;0.20;;;;;;;;;;6243324;28;20032;-87
2023/12/20 10:20:55;;;;;;;0.20;0.20;;;;;;;;;;6245460;28;20013;-87
2023/12/20 10:23:55;;;;;;;0.20;0.20;;;;;;;;;;6247654;28;20443;-87
2023/12/20 10:27:03;;;;;;;0.20;0.20;;;;;;;;;;6245695;28;20025;-86
2023/12/20 10:30:04;;;;;;;0.20;0.20;;;;;;;;;;6243535;28;20426;-87
2023/12/20 10:33:08;;;;;;;0.20;0.20;;;;;;;;;;6243702;28;20037;-87
2023/12/20 10:36:08;;;;;;;0.20;0.20;;;;;;;;;;6244949;28;20025;-87
2023/12/20 10:39:11;;;;;;;0.20;0.20;;;;;;;;;;6242572;28;20013;-87
2023/12/20 10:42:12;;;;;;;0.20;0.20;;;;;;;;;;6260351;28;20224;-85
2023/12/20 10:45:12;;;;;;;0.20;0.20;;;;;;;;;;6240176;28;20534;-86
2023/12/20 10:48:13;;;;;;;0.20;0.20;;;;;;;;;;6243733;28;20280;-87
2023/12/20 10:51:17;;;;;;;0.20;0.20;;;;;;;;;;6235371;28;20017;-88
2023/12/20 10:54:17;;;;;;;0.20;0.20;;;;;;;;;;6242820;28;20056;-87
2023/12/20 10:57:18;;;;;;;0.20;0.20;;;;;;;;;;6244481;28;20603;-87
2023/12/20 11:00:20;;;;;;;0.20;0.20;;;;;;;;;;6244097;28;20111;-87
2023/12/20 11:03:24;;;;;;;0.20;0.20;;;;;;;;;;6245056;28;20096;-92
2023/12/20 11:06:34;;;;;;;0.20;0.20;;;;;;;;;;6245181;28;20025;-93
2023/12/20 11:09:40;;;;;;;0.20;0.20;;;;;;;;;;6243400;28;20041;-92
2023/12/20 11:12:50;;;;;;;0.20;0.20;;;;;;;;;;6243751;28;20088;-87
2023/12/20 11:15:50;;;;;;;0.20;0.20;;;;;;;;;;6243931;28;20021;-87
2023/12/20 11:18:51;;;;;;;0.20;0.20;;;;;;;;;;6244256;28;20036;-87
2023/12/20 11:21:51;;;;;;;0.20;0.20;;;;;;;;;;6245505;28;20052;-87
2023/12/20 11:24:52;;;;;;;0.20;0.20;;;;;;;;;;6242355;28;20063;-87
2023/12/20 11:28:11;;;;;;;0.20;0.20;;;;;;;;;;6241989;28;20032;-87
2023/12/20 11:31:14;;;;;;;0.20;0.20;;;;;;;;;;6244200;28;20083;-87
2023/12/20 11:34:17;;;;;;;0.20;0.20;;;;;;;;;;6242365;28;20009;-87
2023/12/20 11:37:19;;;;;;;0.20;0.20;;;;;;;;;;6242453;28;20017;-86
2023/12/20 11:40:21;;;;;;;;;;;;;;;;;;6239817;28;20025;-87
2023/12/20 11:43:32;;;;;;;0.20;0.20;;;;;;;;;;6242305;28;19917;-87
2023/12/20 11:46:33;;;;;;;0.20;0.20;;;;;;;;;;6242255;28;20083;-86
2023/12/20 11:49:33;;;;;;;0.10;0.10;;;;;;;;;;6258682;28;20121;-87
2023/12/20 11:52:36;;;;;;;0.20;0.20;;;;;;;;;;6244366;28;20013;-87
2023/12/20 11:55:37;;;;;;;0.20;0.20;;;;;;;;;;6237065;28;20010;-87
2023/12/20 11:58:37;;;;;;;0.20;0.20;;;;;;;;;;6238577;28;20487;-86
2023/12/20 12:01:37;;;;;;;0.20;0.20;;;;;;;;;;6239627;28;20013;-87
2023/12/20 12:04:37;;;;;;;0.10;0.10;;;;;;;;;;6241526;28;20022;-87
2023/12/20 12:07:38;;;;;;;0.20;0.20;;;;;;;;;;6256206;28;20096;-86
2023/12/20 12:10:38;;;;;;;0.20;0.20;;;;;;;;;;6242450;28;20037;-86
2023/12/20 12:13:38;;;;;;;0.20;0.20;;;;;;;;;;6258133;28;20096;-92
2023/12/20 12:16:38;;;;;;;0.20;0.20;;;;;;;;;;6241069;28;20052;-92
2023/12/20 12:19:39;;;;;;;0.20;0.20;;;;;;;;;;6239168;28;20108;-92
2023/12/20 12:22:39;;;;;;;0.20;0.20;;;;;;;;;;6244666;28;20096;-92
2023/12/20 12:25:40;;;;;;;0.10;0.10;;;;;;;;;;6243948;28;20160;-91
2023/12/20 12:28:41;;;;;;;0.20;0.20;;;;;;;;;;6243390;28;20468;-91
2023/12/20 12:31:41;;;;;;;0.20;0.20;;;;;;;;;;6259795;28;20403;-92
2023/12/20 12:34:42;;;;;;;0.20;0.20;;;;;;;;;;6255828;28;20021;-92
2023/12/20 12:37:45;;;;;;;0.20;0.20;;;;;;;;;;6247498;28;20545;-93
2023/12/20 12:40:46;;;;;;;0.20;0.20;;;;;;;;;;6247486;28;20210;-92
2023/12/20 12:43:46;;;;;;;0.20;0.20;;;;;;;;;;6265099;28;20476;-93
2023/12/20 12:46:46;;;;;;;0.20;0.20;;;;;;;;;;6248554;28;20116;-90
2023/12/20 12:49:46;;;;;;;0.10;0.10;;;;;;;;;;6248248;28;20077;-89
2023/12/20 12:52:47;;;;;;;0.10;0.10;;;;;;;;;;6251313;28;20047;-88
2023/12/20 12:55:47;;;;;;;0.20;0.20;;;;;;;;;;6247190;28;20018;-90
2023/12/20 12:58:47;;;;;;;0.20;0.20;;;;;;;;;;6245098;28;20464;-90
2023/12/20 13:01:48;;;;;;;0.20;0.20;;;;;;;;;;6242553;28;20025;-90
2023/12/20 13:04:48;;;;;;;0.20;0.20;;;;;;;;;;6243635;28;20104;-88
2023/12/20 13:07:48;;;;;;;0.20;0.20;;;;;;;;;;6248659;28;20021;-90
2023/12/20 13:10:49;;;;;;;0.20;0.20;;;;;;;;;;6249245;28;20041;-91
2023/12/20 13:13:49;;;;;;;0.20;0.20;;;;;;;;;;6252193;28;20017;-89
2023/12/20 13:16:49;;;;;;;0.20;0.20;;;;;;;;;;6254958;28;20464;-89
2023/12/20 13:19:50;;;;;;;0.20;0.20;;;;;;;;;;6254694;28;20113;-90
2023/12/20 13:22:50;;;;;;;0.20;0.20;;;;;;;;;;6253358;28;20021;-90
2023/12/20 13:25:50;;;;;;;0.20;0.20;;;;;;;;;;6251877;28;20021;-90
2023/12/20 13:28:50;;;;;;;0.20;0.20;;;;;;;;;;6252390;28;20018;-91
2023/12/20 13:31:52;;;;;;;0.20;0.20;;;;;;;;;;6251568;28;20021;-92
2023/12/20 13:34:52;;;;;;;0.20;0.20;;;;;;;;;;6252518;28;20022;-90
2023/12/20 13:37:52;;;;;;;0.20;0.20;;;;;;;;;;6253200;28;20020;-91
2023/12/20 13:40:52;;;;;;;0.20;0.20;;;;;;;;;;6252536;28;20025;-90
2023/12/20 13:43:54;;;;;;;0.20;0.20;;;;;;;;;;6252920;28;20022;-90
2023/12/20 13:46:54;;;;;;;0.20;0.20;;;;;;;;;;6252651;28;20013;-90
2023/12/20 13:49:56;;;;;;;0.20;0.20;;;;;;;;;;6250987;28;20060;-90
2023/12/20 13:52:56;;;;;;;0.20;0.20;;;;;;;;;;6252493;28;20010;-91
2023/12/20 13:55:57;;;;;;;0.20;0.20;;;;;;;;;;6251851;28;20532;-89
2023/12/20 13:58:57;;;;;;;0.20;0.20;;;;;;;;;;6251767;28;20427;-89
2023/12/20 14:01:58;;;;;;;0.20;0.20;;;;;;;;;;6251844;28;20021;-89
2023/12/20 14:04:58;;;;;;;0.10;0.10;;;;;;;;;;6251950;28;20020;-89
2023/12/20 14:07:59;;;;;;;0.20;0.20;;;;;;;;;;6251454;28;20151;-89
2023/12/20 14:11:01;;;;;;;0.20;0.20;;;;;;;;;;6249964;28;20500;-89
2023/12/20 14:14:01;;;;;;;0.20;0.20;;;;;;;;;;6266561;28;20377;-89
2023/12/20 14:17:02;;;;;;;0.20;0.20;;;;;;;;;;6252058;28;20075;-89
2023/12/20 14:20:03;;;;;;;0.20;0.20;;;;;;;;;;6250671;28;20014;-89
2023/12/20 14:23:03;;;;;;;0.20;0.20;;;;;;;;;;6249986;28;20415;-89
2023/12/20 14:26:03;;;;;;;0.20;0.20;;;;;;;;;;6251569;28;20018;-90
2023/12/20 14:29:04;;;;;;;0.20;0.20;;;;;;;;;;6250720;28;20025;-90
2023/12/20 14:32:06;;;;;;;0.20;0.20;;;;;;;;;;6250115;28;20017;-90
2023/12/20 14:35:06;;;;;;;;;;;;;;;;;;6251150;28;20472;-86
2023/12/20 14:38:06;;;;;;;0.20;0.20;;;;;;;;;;6251272;28;19992;-86
2023/12/20 14:41:08;;;;;;;0.20;0.20;;;;;;;;;;6250991;28;20049;-86
2023/12/20 14:44:08;;;;;;;0.20;0.20;;;;;;;;;;6251388;28;20096;-90
2023/12/20 14:47:09;;;;;;;0.20;0.20;;;;;;;;;;6250949;28;20022;-90
2023/12/20 14:50:10;;;;;;;0.20;0.20;;;;;;;;;;6249489;28;20075;-90
2023/12/20 14:53:10;;;;;;;0.20;0.20;;;;;;;;;;6250568;28;20021;-89
2023/12/20 14:56:10;;;;;;;0.20;0.20;;;;;;;;;;6249761;28;20024;-89
2023/12/20 14:59:11;;;;;;;0.20;0.20;;;;;;;;;;6248581;28;20021;-89
2023/12/20 15:02:11;;;;;;;0.20;0.20;;;;;;;;;;6248853;28;20084;-90
2023/12/20 15:05:11;;;;;;;0.20;0.20;;;;;;;;;;6250227;28;20036;-89
2023/12/20 15:08:11;;;;;;;0.20;0.20;;;;;;;;;;6249961;28;20160;-90
2023/12/20 15:11:11;;;;;;;0.20;0.20;;;;;;;;;;6244612;28;20091;-90
2023/12/20 15:14:14;;;;;;;0.20;0.20;;;;;;;;;;6242692;28;20017;-90
2023/12/20 15:17:15;;;;;;;0.20;0.20;;;;;;;;;;6258817;28;20014;-90
2023/12/20 15:20:15;;;;;;;0.20;0.20;;;;;;;;;;6243725;28;20106;-90
2023/12/20 15:23:16;;;;;;;0.20;0.20;;;;;;;;;;6243816;28;20013;-89
2023/12/20 15:26:16;;;;;;;0.20;0.20;;;;;;;;;;6242160;28;20464;-90
2023/12/20 15:29:17;;;;;;;0.20;0.20;;;;;;;;;;6243135;28;20201;-90
2023/12/20 15:32:20;;;;;;;0.20;0.20;;;;;;;;;;6241271;28;20531;-89
2023/12/20 15:35:21;;;;;;;0.20;0.20;;;;;;;;;;6242989;28;20495;-90
2023/12/20 15:38:22;;;;;;;0.20;0.20;;;;;;;;;;6243217;28;20029;-89
2023/12/20 15:41:23;;;;;;;0.20;0.20;;;;;;;;;;6241491;28;20025;-90
2023/12/20 15:44:23;;;;;;;0.20;0.20;;;;;;;;;;6258245;28;20522;-90
2023/12/20 15:47:24;;;;;;;0.20;0.20;;;;;;;;;;6243326;28;20021;-90
2023/12/20 15:50:24;;;;;;;0.20;0.20;;;;;;;;;;6241055;28;20021;-89
2023/12/20 15:53:24;;;;;;;0.20;0.20;;;;;;;;;;6242163;28;20108;-86
2023/12/20 15:56:25;;;;;;;0.20;0.20;;;;;;;;;;6243816;28;20411;-86
2023/12/20 15:59:25;;;;;;;0.20;0.20;;;;;;;;;;6239626;28;20028;-86
2023/12/20 16:02:25;;;;;;;0.20;0.20;;;;;;;;;;6242917;28;20392;-86
2023/12/20 16:05:25;;;;;;;0.20;0.20;;;;;;;;;;6234139;28;20018;-87
2023/12/20 16:08:26;;;;;;;0.20;0.20;;;;;;;;;;6242758;28;20040;-87
2023/12/20 16:11:27;;;;;;;0.20;0.20;;;;;;;;;;6242111;28;20021;-87
2023/12/20 16:14:29;;;;;;;0.20;0.20;;;;;;;;;;6242457;28;20028;-86
2023/12/20 16:17:29;;;;;;;0.20;0.20;;;;;;;;;;6241906;28;20017;-86
2023/12/20 16:20:30;;;;;;;0.20;0.20;;;;;;;;;;6242694;28;20071;-86
2023/12/20 16:23:30;;;;;;;0.20;0.20;;;;;;;;;;6258578;28;20365;-87
2023/12/20 16:26:30;;;;;;;0.20;0.20;;;;;;;;;;6242449;28;20029;-87
2023/12/20 16:29:30;;;;;;;0.20;0.20;;;;;;;;;;6233645;28;20058;-86
2023/12/20 16:32:31;;;;;;;0.20;0.20;;;;;;;;;;6231451;28;20044;-86
2023/12/20 16:35:34;;;;;;;0.20;0.20;;;;;;;;;;6228615;28;20014;-87
2023/12/20 16:38:35;;;;;;;0.20;0.20;;;;;;;;;;6237427;28;20028;-86
2023/12/20 16:41:35;;;;;;;0.20;0.20;;;;;;;;;;6227645;28;20021;-87
2023/12/20 16:44:35;;;;;;;0.20;0.20;;;;;;;;;;6239639;28;20029;-86
2023/12/20 16:47:35;;;;;;;0.20;0.20;;;;;;;;;;6239455;28;20530;-87
2023/12/20 16:50:36;;;;;;;0.20;0.20;;;;;;;;;;6241352;28;20113;-87
2023/12/20 16:53:36;;;;;;;0.20;0.20;;;;;;;;;;6240578;28;20021;-89
2023/12/20 16:56:37;;;;;;;0.20;0.20;;;;;;;;;;6217354;28;20087;-90
2023/12/20 16:59:41;;;;;;;0.30;0.30;;;;;;;;;;6240001;28;20113;-89
2023/12/20 17:02:41;;;;;;;0.20;0.20;;;;;;;;;;6233841;28;20535;-87
2023/12/20 17:05:41;;;;;;;0.20;0.20;;;;;;;;;;6242961;28;20056;-87
2023/12/20 17:08:43;;;;;;;0.20;0.20;;;;;;;;;;6238620;28;20053;-86
2023/12/20 17:11:43;;;;;;;0.20;0.20;;;;;;;;;;6250831;28;20030;-85
2023/12/20 17:14:44;;;;;;;0.20;0.20;;;;;;;;;;6240839;28;20052;-87
2023/12/20 17:17:44;;;;;;;0.20;0.20;;;;;;;;;;6260395;28;20028;-87
2023/12/20 17:20:47;;;;;;;0.20;0.20;;;;;;;;;;6238820;28;20025;-86
2023/12/20 17:23:47;;;;;;;0.20;0.20;;;;;;;;;;6244322;28;20037;-87
2023/12/20 17:26:51;;;;;;;0.20;0.20;;;;;;;;;;6244122;28;20060;-86
2023/12/20 17:29:51;;;;;;;0.20;0.20;;;;;;;;;;6246598;28;20024;-86
2023/12/20 17:32:51;;;;;;;0.20;0.20;;;;;;;;;;6247483;28;20053;-86
2023/12/20 17:35:51;;;;;;;0.20;0.20;;;;;;;;;;6239480;28;20471;-86
2023/12/20 17:38:52;;;;;;;0.20;0.20;;;;;;;;;;6238915;28;20025;-86
2023/12/20 17:41:52;;;;;;;0.20;0.20;;;;;;;;;;6244625;28;20554;-86
2023/12/20 17:44:52;;;;;;;0.20;0.20;;;;;;;;;;6238685;28;20048;-86
2023/12/20 17:47:52;;;;;;;0.20;0.20;;;;;;;;;;6247764;28;20567;-86
2023/12/20 17:50:52;;;;;;;0.20;0.20;;;;;;;;;;6241547;28;20390;-86
2023/12/20 17:53:53;;;;;;;0.20;0.20;;;;;;;;;;6224516;28;20491;-86
2023/12/20 17:56:54;;;;;;;0.20;0.20;;;;;;;;;;6241556;28;20013;-87
2023/12/20 17:59:54;;;;;;;0.20;0.20;;;;;;;;;;6237048;28;20064;-87
2023/12/20 18:02:54;;;;;;;0.20;0.20;;;;;;;;;;6240570;28;20040;-87